This is the latest recevied weather packets stored in our database for station/object KE1THD. If no packets are shown the sender has not sent any weather packets the latest 10 day(s).
| Time | Temp. | Humidity | Pressure | Rain* | Wind** | Luminosity | Snow |
|---|---|---|---|---|---|---|---|
| 1777131028 | 17.22° C | 65% | 1015.3 hPa | 0 mm | - | 727 W/m² | - |
| 1777130724 | 17.78° C | 64% | 1014.8 hPa | 0 mm | - | 686 W/m² | - |
| 1777130421 | 17.22° C | 65% | 1015.3 hPa | 0 mm | - | 697 W/m² | - |
| 1777130116 | 17.78° C | 62% | 1015 hPa | 0 mm | - | 688 W/m² | - |
| 1777129812 | 17.78° C | 64% | 1014.8 hPa | 0 mm | - | 644 W/m² | - |
| 1777129507 | 17.78° C | 65% | 1014.8 hPa | 0 mm | - | 604 W/m² | - |
| 1777129201 | 17.78° C | 64% | 1014.6 hPa | 0 mm | - | 580 W/m² | - |
| 1777128897 | 17.22° C | 65% | 1014.6 hPa | 0 mm | - | 611 W/m² | - |
| 1777128594 | 16.67° C | 66% | 1014.4 hPa | 0 mm | - | 626 W/m² | - |
| 1777128291 | 16.67° C | 64% | 1014.3 hPa | 0 mm | - | 594 W/m² | - |
| 1777127988 | 16.67° C | 63% | 1014.3 hPa | 0 mm | - | 573 W/m² | - |
| 1777127686 | 16.67° C | 65% | 1014.2 hPa | 0 mm | - | 547 W/m² | - |
| 1777127383 | 16.11° C | 66% | 1014.2 hPa | 0 mm | - | 550 W/m² | - |
| 1777127079 | 16.11° C | 67% | 1014.1 hPa | 0 mm | - | 510 W/m² | - |
| 1777126775 | 16.11° C | 67% | 1014 hPa | 0 mm | - | 471 W/m² | - |
| 1777126471 | 16.11° C | 67% | 1014 hPa | 0 mm | - | 448 W/m² | - |
| 1777126167 | 16.11° C | 69% | 1014 hPa | 0 mm | - | 406 W/m² | - |
| 1777125862 | 15.56° C | 69% | 1013.9 hPa | 0 mm | - | 384 W/m² | - |
| 1777125560 | 15.56° C | 70% | 1013.8 hPa | 0 mm | - | 378 W/m² | - |
| 1777125254 | 15° C | 71% | 1013.9 hPa | 0 mm | - | 363 W/m² | - |
| 1777124954 | 15° C | 72% | 1014.1 hPa | 0 mm | - | 340 W/m² | - |
| 1777124651 | 14.44° C | 71% | 1014.2 hPa | 0 mm | - | 331 W/m² | - |
| 1777124346 | 14.44° C | 73% | 1014.1 hPa | 0 mm | - | 317 W/m² | - |
| 1777124044 | 13.89° C | 74% | 1014.2 hPa | 0 mm | - | 297 W/m² | - |
| 1777123741 | 13.89° C | 74% | 1014.2 hPa | 0 mm | - | 53 W/m² | - |
* Rain latest hour (hover to see other rain measurements)
** Current wind speed in m/s (hover to see current wind gust speed)